Time;durP1;ratioP1;P1;durP2;ratioP2;P2;SDS_P1;SDS_P2;PMS_P1;PMS_P2;Temp;Humidity;BMP_temperature;BMP_pressure;BME280_temperature;BME280_humidity;BME280_pressure;Samples;Min_cycle;Max_cycle;Signal;HPM_P1;HPM_P2
2022/05/20 00:00:57;;;;;;;;;;;;;;;13.63;60.42;100806.03;5107959;28;19920;-84
2022/05/20 00:03:22;;;;;;;;;;;;;;;13.11;62.39;100802.03;5107239;28;20408;-82
2022/05/20 00:05:48;;;;;;;;;;;;;;;13.06;62.44;100810.03;5107539;28;19965;-83
2022/05/20 00:08:13;;;;;;;;;;;;;;;13.16;61.37;100809.94;5107117;28;19919;-83
2022/05/20 00:10:39;;;;;;;;;;;;;;;13.09;61.46;100798.53;5107400;28;19919;-83
2022/05/20 00:13:05;;;;;;;;;;;;;;;13.03;62.18;100798.56;5107203;28;19919;-82
2022/05/20 00:15:30;;;;;;;;;;;;;;;13.08;61.58;100799.41;5106390;28;19911;-83
2022/05/20 00:17:56;;;;;;;;;;;;;;;12.97;61.77;100794.19;5107499;28;19933;-82
2022/05/20 00:20:23;;;;;;;;;;;;;;;13.11;61.49;100790.56;5106964;28;20022;-82
2022/05/20 00:22:48;;;;;;;;;;;;;;;13.18;61.13;100797.59;5107469;28;19920;-82
2022/05/20 00:27:59;;;;;;;;;;;;;;;13.11;61.36;100795.88;5108095;28;19945;-83
2022/05/20 00:30:25;;;;;;;;;;;;;;;13.07;61.68;100795.03;5107226;28;19919;-83
2022/05/20 00:32:52;;;;;;;;;;;;;;;13.01;61.79;100795.06;5107487;28;20733;-83
2022/05/20 00:35:17;;;;;;;;;;;;;;;13.08;61.49;100797.66;5107160;28;19949;-83
2022/05/20 00:37:44;;;;;;;;;;;;;;;13.03;61.35;100793.28;5106556;28;19924;-83
2022/05/20 00:40:10;;;;;;;;;;;;;;;13.00;61.31;100798.59;5106531;28;19926;-83
2022/05/20 00:42:36;;;;;;;;;;;;;;;12.97;61.24;100798.63;5105529;28;19920;-83
2022/05/20 00:45:02;;;;;;;;;;;;;;;13.02;61.12;100802.09;5106386;28;20313;-82
2022/05/20 00:47:28;;;;;;;;;;;;;;;13.11;60.09;100801.16;5106756;28;19915;-84
2022/05/20 00:49:55;;;;;;;;;;;;;;;12.97;60.96;100798.63;5105745;28;19977;-82
2022/05/20 00:52:22;;;;;;;;;;;;;;;12.91;61.10;100794.25;5106214;28;20765;-82
2022/05/20 00:54:50;;;;;;;;;;;;;;;12.87;60.91;100792.53;5107212;28;19969;-82
2022/05/20 00:57:18;;;;;;;;;;;;;;;12.94;60.87;100793.34;5107419;28;20376;-82
2022/05/20 00:59:48;;;;;;;;;;;;;;;12.83;60.85;100796.06;5107465;28;19970;-82
2022/05/20 01:02:15;;;;;;;;;;;;;;;12.83;60.79;100799.59;5106374;28;19920;-82
2022/05/20 01:04:41;;;;;;;;;;;;;;;12.86;61.28;100796.91;5107172;28;19919;-82
2022/05/20 01:07:07;;;;;;;;;;;;;;;12.81;62.05;100798.72;5086276;28;19920;-82
2022/05/20 01:09:35;;;;;;;;;;;;;;;12.96;61.74;100796.84;5085876;28;20441;-84
2022/05/20 01:12:01;;;;;;;;;;;;;;;12.85;61.97;100794.28;5103982;28;19919;-83
2022/05/20 01:14:26;;;;;;;;;;;;;;;12.65;61.19;100800.59;5105777;28;20399;-81
2022/05/20 01:16:52;;;;;;;;;;;;;;;12.67;61.87;100796.16;5106689;28;19983;-82
2022/05/20 01:19:31;;;;;;;;;;;;;;;12.67;61.25;100801.47;5107092;28;19916;-81
2022/05/20 01:21:56;;;;;;;;;;;;;;;12.79;61.74;100802.25;5107810;28;19916;-82
2022/05/20 01:24:22;;;;;;;;;;;;;;;12.63;60.93;100804.13;5107967;28;20502;-82
2022/05/20 01:26:47;;;;;;;;;;;;;;;12.58;61.28;100808.59;5108835;28;19968;-81
2022/05/20 01:29:13;;;;;;;;;;;;;;;12.52;61.24;100804.19;5111748;28;19919;-81
2022/05/20 01:31:38;;;;;;;;;;;;;;;12.49;61.62;100812.16;5110944;28;19926;-81
2022/05/20 01:34:03;;;;;;;;;;;;;;;12.39;62.24;100815.72;5110172;28;20027;-81
2022/05/20 01:36:29;;;;;;;;;;;;;;;12.40;63.08;100809.56;5110619;28;19955;-81
2022/05/20 01:38:54;;;;;;;;;;;;;;;12.65;61.84;100816.50;5110615;28;19951;-81
2022/05/20 01:41:39;;;;;;;;;;;;;;;12.48;61.16;100818.31;5109856;28;19972;-81
2022/05/20 01:44:20;;;;;;;;;;;;;;;12.46;61.88;100813.03;5110343;28;20440;-81
2022/05/20 01:46:48;;;;;;;;;;;;;;;12.44;61.28;100816.59;5107639;28;19908;-82
2022/05/20 01:49:13;;;;;;;;;;;;;;;12.41;61.35;100816.63;5110047;28;19988;-82
2022/05/20 01:51:45;;;;;;;;;;;;;;;12.35;61.37;100817.50;5110063;28;19951;-82
2022/05/20 01:54:14;;;;;;;;;;;;;;;12.23;61.97;100814.91;5110524;28;20323;-81
2022/05/20 01:56:46;;;;;;;;;;;;;;;12.22;61.92;100818.44;5110840;28;19915;-81
2022/05/20 01:59:23;;;;;;;;;;;;;;;12.16;61.72;100825.53;5110583;28;20325;-81
2022/05/20 02:01:52;;;;;;;;;;;;;;;12.14;61.77;100822.00;5109316;28;20459;-81
2022/05/20 02:04:23;;;;;;;;;;;;;;;12.16;61.96;100828.16;5109694;28;19926;-82
2022/05/20 02:06:52;;;;;;;;;;;;;;;12.15;62.43;100821.09;5109558;28;19912;-81
2022/05/20 02:09:20;;;;;;;;;;;;;;;12.09;62.70;100820.25;5110059;28;19996;-82
2022/05/20 02:11:55;;;;;;;;;;;;;;;12.08;63.06;100821.13;5109230;28;19915;-81
2022/05/20 02:14:25;;;;;;;;;;;;;;;11.76;64.14;100811.50;5109453;28;19967;-81
2022/05/20 02:16:56;;;;;;;;;;;;;;;11.60;65.08;100805.34;5109086;28;20010;-82
2022/05/20 02:19:27;;;;;;;;;;;;;;;11.68;64.58;100808.88;5109888;28;19915;-81
2022/05/20 02:21:55;;;;;;;;;;;;;;;11.53;64.93;100807.13;5104919;28;19959;-82
2022/05/20 02:24:22;;;;;;;;;;;;;;;11.56;64.93;100804.47;5109733;28;19922;-81
2022/05/20 02:26:49;;;;;;;;;;;;;;;11.65;64.83;100811.53;5109938;28;19912;-82
2022/05/20 02:29:20;;;;;;;;;;;;;;;11.68;64.49;100808.88;5109183;28;20381;-82
2022/05/20 02:31:55;;;;;;;;;;;;;;;11.70;64.52;100812.38;5110062;27;20012;-82
2022/05/20 02:34:21;;;;;;;;;;;;;;;11.65;64.52;100812.41;5109670;28;19955;-81
2022/05/20 02:36:46;;;;;;;;;;;;;;;11.06;66.59;100819.47;5109730;28;20007;-81
2022/05/20 02:39:18;;;;;;;;;;;;;;;11.19;66.42;100814.19;5107488;28;19922;-81
2022/05/20 02:41:44;;;;;;;;;;;;;;;11.14;66.55;100821.22;5109422;28;20008;-82
2022/05/20 02:44:09;;;;;;;;;;;;;;;11.18;66.52;100818.56;5097474;28;19919;-81
2022/05/20 02:46:36;;;;;;;;;;;;;;;11.17;66.51;100822.13;5107491;28;20396;-80
2022/05/20 02:49:02;;;;;;;;;;;;;;;11.32;65.63;100817.72;5109375;28;20036;-82
2022/05/20 02:51:27;;;;;;;;;;;;;;;11.26;66.08;100811.56;5108258;28;20503;-81
2022/05/20 02:53:53;;;;;;;;;;;;;;;11.32;66.01;100815.94;5109404;28;19963;-81
2022/05/20 02:56:18;;;;;;;;;;;;;;;11.29;66.24;100824.75;5109437;28;20409;-82
2022/05/20 03:04:11;;;;;;;;;;;;;;;11.13;67.70;100809.78;5108338;28;19972;-84
2022/05/20 03:06:44;;;;;;;;;;;;;;;11.24;67.18;100805.38;5107073;28;19919;-84
2022/05/20 03:09:11;;;;;;;;;;;;;;;11.08;67.43;100811.53;5109156;28;20438;-86
2022/05/20 03:11:39;;;;;;;;;;;;;;;11.22;67.34;100816.84;5109144;28;20010;-85
2022/05/20 03:14:05;;;;;;;;;;;;;;;11.27;67.42;100818.56;5107613;28;19923;-86
2022/05/20 03:16:34;;;;;;;;;;;;;;;11.28;67.45;100812.44;5108743;28;20329;-85
2022/05/20 03:18:59;;;;;;;;;;;;;;;11.31;67.93;100810.66;5108916;28;19916;-84
2022/05/20 03:21:25;;;;;;;;;;;;;;;11.39;67.55;100811.56;5106581;28;19927;-83
2022/05/20 03:23:50;;;;;;;;;;;;;;;11.33;67.00;100814.19;5108716;28;19924;-84
2022/05/20 03:26:16;;;;;;;;;;;;;;;11.27;67.00;100810.66;5109064;28;19919;-85
2022/05/20 03:28:42;;;;;;;;;;;;;;;11.41;66.54;100809.78;5108799;28;19958;-83
2022/05/20 03:31:09;;;;;;;;;;;;;;;11.44;66.16;100813.28;5106945;28;19923;-82
2022/05/20 03:33:35;;;;;;;;;;;;;;;11.63;65.52;100815.91;5107996;28;19948;-84
2022/05/20 03:36:00;;;;;;;;;;;;;;;11.68;65.23;100815.91;5108814;28;19915;-83
2022/05/20 03:38:26;;;;;;;;;;;;;;;11.65;64.94;100820.31;5108140;28;19916;-84
2022/05/20 03:40:51;;;;;;;;;;;;;;;11.67;64.97;100828.25;5094484;28;19922;-81
2022/05/20 03:43:16;;;;;;;;;;;;;;;11.80;64.68;100830.00;5108351;28;20321;-80
2022/05/20 03:45:45;;;;;;;;;;;;;;;11.99;64.24;100830.84;5108333;28;19912;-85
2022/05/20 03:48:10;;;;;;;;;;;;;;;12.15;64.61;100830.81;5107875;28;19920;-83
2022/05/20 03:50:36;;;;;;;;;;;;;;;12.22;64.76;100829.91;5105484;28;19920;-85
2022/05/20 03:53:02;;;;;;;;;;;;;;;12.34;64.93;100821.94;5107152;28;20372;-86
2022/05/20 03:55:27;;;;;;;;;;;;;;;12.63;64.14;100835.91;5107122;28;19919;-86
2022/05/20 03:57:53;;;;;;;;;;;;;;;12.72;62.26;100835.84;5108308;28;19924;-86
2022/05/20 04:00:18;;;;;;;;;;;;;;;12.88;61.56;100831.34;5104944;28;19916;-85
2022/05/20 04:02:44;;;;;;;;;;;;;;;13.08;61.16;100839.16;5107650;28;19916;-87
2022/05/20 04:05:09;;;;;;;;;;;;;;;13.37;59.09;100844.25;5107834;28;19915;-90
2022/05/20 04:07:35;;;;;;;;;;;;;;;13.53;58.34;100834.41;5106002;28;20411;-86
2022/05/20 04:10:00;;;;;;;;;;;;;;;13.28;56.54;100838.13;5106530;28;19919;-86
2022/05/20 04:12:33;;;;;;;;;;;;;;;13.39;56.83;100844.25;5107884;28;19987;-86
2022/05/20 04:14:59;;;;;;;;;;;;;;;13.51;56.69;100832.66;5108263;28;20073;-85
2022/05/20 04:17:24;;;;;;;;;;;;;;;13.43;54.84;100845.97;5107795;28;20048;-85
2022/05/20 04:19:50;;;;;;;;;;;;;;;13.76;53.37;100835.97;5107711;28;20009;-85
2022/05/20 04:22:17;;;;;;;;;;;;;;;13.88;53.44;100840.28;5099196;28;20407;-86
2022/05/20 04:24:43;;;;;;;;;;;;;;;14.06;53.05;100840.06;5107594;28;19919;-85
2022/05/20 04:27:08;;;;;;;;;;;;;;;14.29;53.09;100844.25;5107642;28;19923;-85
2022/05/20 04:29:34;;;;;;;;;;;;;;;14.38;52.28;100846.78;5107252;28;19951;-84
2022/05/20 04:31:59;;;;;;;;;;;;;;;14.54;53.06;100849.25;5093064;28;20831;-87
2022/05/20 04:34:25;;;;;;;;;;;;;;;14.41;52.74;100841.44;5104658;28;19923;-87
2022/05/20 04:36:51;;;;;;;;;;;;;;;14.68;51.54;100852.63;5106076;28;20003;-86
2022/05/20 04:39:16;;;;;;;;;;;;;;;14.84;51.80;100853.28;5104905;28;20092;-87
2022/05/20 04:47:25;;;;;;;;;;;;;;;15.57;51.79;100850.38;5107798;28;19949;-87
2022/05/20 04:49:50;;;;;;;;;;;;;;;15.85;51.56;100850.78;5102840;28;20007;-87
2022/05/20 04:52:16;;;;;;;;;;;;;;;15.86;51.00;100847.22;5106583;28;20364;-85
2022/05/20 04:54:50;;;;;;;;;;;;;;;15.69;52.05;100843.94;5107535;28;19916;-86
2022/05/20 04:57:19;;;;;;;;;;;;;;;15.69;51.65;100844.84;5106348;28;19912;-86
2022/05/20 04:59:45;;;;;;;;;;;;;;;15.87;53.47;100850.75;5106966;28;19915;-86
2022/05/20 05:02:11;;;;;;;;;;;;;;;16.11;52.44;100852.97;5109441;28;19916;-85
2022/05/20 05:04:36;;;;;;;;;;;;;;;16.24;51.92;100858.91;5111773;28;20446;-85
2022/05/20 05:07:02;;;;;;;;;;;;;;;16.15;51.76;100859.09;5102176;28;19921;-87
2022/05/20 05:09:27;;;;;;;;;;;;;;;16.24;51.93;100855.38;5111210;28;20385;-86
2022/05/20 05:11:52;;;;;;;;;;;;;;;16.85;51.94;100853.19;5111064;28;19955;-88
2022/05/20 05:14:19;;;;;;;;;;;;;;;17.20;50.44;100854.19;5111910;28;20488;-86
2022/05/20 05:16:44;;;;;;;;;;;;;;;16.82;47.50;100862.16;5109926;28;20030;-88
2022/05/20 05:19:10;;;;;;;;;;;;;;;17.33;48.05;100854.75;5108909;28;20010;-86
2022/05/20 05:21:35;;;;;;;;;;;;;;;17.66;47.20;100854.84;5111461;28;19968;-88
2022/05/20 05:24:01;;;;;;;;;;;;;;;18.02;46.88;100847.66;5110434;28;19915;-88
2022/05/20 05:26:30;;;;;;;;;;;;;;;18.00;46.35;100846.84;5109592;28;20373;-88
2022/05/20 05:28:56;;;;;;;;;;;;;;;17.88;47.47;100848.03;5111177;28;19965;-88
2022/05/20 05:31:21;;;;;;;;;;;;;;;18.15;46.60;100850.88;5111209;28;19919;-87
2022/05/20 05:33:47;;;;;;;;;;;;;;;18.40;46.64;100851.06;5111267;28;19915;-88
2022/05/20 05:36:12;;;;;;;;;;;;;;;18.36;46.02;100857.41;5110273;28;19916;-90
2022/05/20 05:38:38;;;;;;;;;;;;;;;18.06;45.97;100859.16;5111204;28;19943;-87
2022/05/20 05:41:03;;;;;;;;;;;;;;;17.99;45.86;100854.91;5110944;28;20006;-87
2022/05/20 05:43:29;;;;;;;;;;;;;;;17.68;46.12;100861.00;5111500;28;20296;-87
2022/05/20 05:45:54;;;;;;;;;;;;;;;17.50;48.21;100857.91;5110678;28;20403;-87
2022/05/20 05:48:19;;;;;;;;;;;;;;;17.26;49.07;100854.06;5108537;28;19919;-88
2022/05/20 05:50:45;;;;;;;;;;;;;;;17.42;48.39;100856.34;5111067;28;19915;-85
2022/05/20 05:53:12;;;;;;;;;;;;;;;17.69;47.21;100849.44;5109002;28;20425;-86
2022/05/20 05:55:38;;;;;;;;;;;;;;;17.67;46.14;100848.56;5109977;28;19911;-88
2022/05/20 05:58:03;;;;;;;;;;;;;;;17.67;45.72;100852.13;5111030;28;20468;-86
2022/05/20 06:00:29;;;;;;;;;;;;;;;18.20;46.03;100842.75;5109851;28;19926;-88
2022/05/20 06:02:54;;;;;;;;;;;;;;;18.55;46.25;100848.84;5100938;28;20007;-87
2022/05/20 06:05:20;;;;;;;;;;;;;;;18.60;45.33;100842.44;5088418;28;19946;-88
2022/05/20 06:07:46;;;;;;;;;;;;;;;18.48;48.12;100839.28;5107640;28;19915;-87
2022/05/20 06:10:12;;;;;;;;;;;;;;;19.16;44.14;100831.88;5107849;28;20003;-87
2022/05/20 06:12:37;;;;;;;;;;;;;;;19.45;44.14;100842.47;5100386;28;19945;-87
2022/05/20 06:15:06;;;;;;;;;;;;;;;19.39;43.09;100840.00;5109803;28;20713;-88
2022/05/20 06:17:32;;;;;;;;;;;;;;;19.08;43.52;100838.34;5109717;28;19919;-88
2022/05/20 06:19:58;;;;;;;;;;;;;;;19.21;41.65;100837.94;5108656;28;20396;-87
2022/05/20 06:22:23;;;;;;;;;;;;;;;19.70;42.07;100840.78;5108349;28;19965;-87
2022/05/20 06:24:48;;;;;;;;;;;;;;;20.02;44.16;100847.69;5107823;27;19919;-87
2022/05/20 06:27:14;;;;;;;;;;;;;;;20.13;41.32;100841.94;5107369;28;19916;-87
2022/05/20 06:29:39;;;;;;;;;;;;;;;20.92;41.27;100843.41;5106983;28;19916;-87
2022/05/20 06:32:04;;;;;;;;;;;;;;;21.58;40.57;100842.53;5107342;28;19968;-88
2022/05/20 06:39:48;;;;;;;;;;;;;;;21.84;39.55;100845.88;5107121;28;19959;-88
2022/05/20 06:40:09;;;;;;;;;;;;;;;22.84;38.29;100829.72;5109238;28;19922;-89
2022/05/20 06:42:34;;;;;;;;;;;;;;;22.83;35.07;100828.88;5109415;28;19960;-87
2022/05/20 06:45:00;;;;;;;;;;;;;;;23.22;35.69;100827.88;5108499;28;20353;-88
2022/05/20 06:47:25;;;;;;;;;;;;;;;23.91;35.76;100828.00;5109769;28;19916;-87
2022/05/20 06:49:50;;;;;;;;;;;;;;;24.09;36.06;100823.47;5109434;28;19916;-87
2022/05/20 06:52:16;;;;;;;;;;;;;;;23.85;35.95;100821.13;5109392;28;19922;-88
2022/05/20 06:54:41;;;;;;;;;;;;;;;23.48;33.86;100814.94;5109969;28;19915;-88
2022/05/20 06:57:06;;;;;;;;;;;;;;;22.87;36.94;100829.59;5109583;28;20381;-88
2022/05/20 06:59:32;;;;;;;;;;;;;;;22.60;35.50;100826.38;5109503;28;19962;-87
2022/05/20 07:02:00;;;;;;;;;;;;;;;22.36;38.24;100823.91;5109071;28;20373;-86
2022/05/20 07:04:27;;;;;;;;;;;;;;;22.51;36.93;100815.13;5109424;28;19941;-89
2022/05/20 07:06:52;;;;;;;;;;;;;;;23.35;37.56;100819.19;5109114;28;20018;-87
2022/05/20 07:09:17;;;;;;;;;;;;;;;24.22;38.56;100815.59;5109644;28;20076;-87
2022/05/20 07:11:43;;;;;;;;;;;;;;;24.63;34.46;100820.56;5109002;28;19919;-86
2022/05/20 07:14:08;;;;;;;;;;;;;;;23.70;35.79;100812.00;5108076;28;19926;-87
2022/05/20 07:16:34;;;;;;;;;;;;;;;23.89;33.90;100814.63;5108813;28;19931;-86
2022/05/20 07:18:59;;;;;;;;;;;;;;;24.19;35.31;100808.56;5108005;28;19968;-87
2022/05/20 07:21:25;;;;;;;;;;;;;;;24.15;36.30;100804.28;5108237;27;20694;-88
2022/05/20 07:23:50;;;;;;;;;;;;;;;23.97;32.32;100807.97;5108856;28;20686;-89
2022/05/20 07:26:17;;;;;;;;;;;;;;;23.87;34.95;100804.91;5108569;28;20324;-88
2022/05/20 07:28:43;;;;;;;;;;;;;;;23.58;34.61;100805.41;5108664;28;19916;-88
2022/05/20 07:31:08;;;;;;;;;;;;;;;23.57;33.68;100800.09;5107566;28;20037;-86
2022/05/20 07:33:34;;;;;;;;;;;;;;;23.52;36.82;100800.34;5108669;28;19990;-86
2022/05/20 07:35:59;;;;;;;;;;;;;;;24.66;36.45;100815.00;5108818;28;19977;-88
2022/05/20 07:38:25;;;;;;;;;;;;;;;25.45;33.34;100805.09;5109136;28;19922;-88
2022/05/20 07:40:50;;;;;;;;;;;;;;;25.42;31.73;100797.19;5108616;28;20417;-90
2022/05/20 07:43:16;;;;;;;;;;;;;;;25.52;32.73;100796.53;5108806;28;19915;-89
2022/05/20 07:45:41;;;;;;;;;;;;;;;25.76;32.93;100790.59;5108448;28;19907;-88
2022/05/20 07:48:07;;;;;;;;;;;;;;;25.20;34.71;100801.13;5108136;28;20368;-88
2022/05/20 07:50:36;;;;;;;;;;;;;;;25.00;30.76;100794.19;5107036;28;20385;-89
2022/05/20 07:53:20;;;;;;;;;;;;;;;25.15;34.68;100798.69;5106766;28;19915;-88
2022/05/20 07:55:47;;;;;;;;;;;;;;;26.00;31.85;100790.94;5106934;28;20388;-89
2022/05/20 07:58:14;;;;;;;;;;;;;;;26.40;32.57;100790.25;5106959;28;19916;-89
2022/05/20 08:00:40;;;;;;;;;;;;;;;26.89;31.06;100784.38;5108569;28;20762;-89
2022/05/20 08:03:07;;;;;;;;;;;;;;;26.54;30.76;100782.13;5108412;28;19922;-89
2022/05/20 08:05:35;;;;;;;;;;;;;;;26.63;29.11;100786.94;5106620;28;20788;-88
2022/05/20 08:08:02;;;;;;;;;;;;;;;27.30;28.90;100775.31;5108207;28;19918;-89
2022/05/20 08:10:29;;;;;;;;;;;;;;;27.21;28.86;100778.66;5108051;28;19984;-88
2022/05/20 08:12:55;;;;;;;;;;;;;;;27.85;26.69;100775.19;5108043;28;20442;-89
2022/05/20 08:15:20;;;;;;;;;;;;;;;27.17;27.23;100774.41;5108013;28;19915;-88
2022/05/20 08:17:46;;;;;;;;;;;;;;;26.72;27.12;100769.25;5108117;28;19916;-89
2022/05/20 08:20:16;;;;;;;;;;;;;;;26.53;26.73;100768.69;5106934;28;20643;-89
2022/05/20 08:22:41;;;;;;;;;;;;;;;26.80;29.73;100763.31;5106106;28;19927;-88
2022/05/20 08:25:07;;;;;;;;;;;;;;;26.59;25.74;100762.88;5107911;28;19911;-89
2022/05/20 08:27:32;;;;;;;;;;;;;;;26.32;29.79;100754.72;5107234;28;20434;-90
2022/05/20 08:30:02;;;;;;;;;;;;;;;26.45;25.72;100750.25;5108096;28;20006;-89
2022/05/20 08:32:27;;;;;;;;;;;;;;;27.12;26.27;100746.78;5107227;28;19934;-90
2022/05/20 08:34:52;;;;;;;;;;;;;;;26.79;23.88;100731.84;5106291;28;20405;-90
2022/05/20 08:37:18;;;;;;;;;;;;;;;26.38;22.63;100736.25;5106106;28;19916;-89
2022/05/20 08:39:43;;;;;;;;;;;;;;;26.51;27.21;100733.63;5107503;28;19911;-91
2022/05/20 08:42:18;;;;;;;;;;;;;;;26.47;22.76;100728.53;5105987;28;19924;-89
2022/05/20 08:44:44;;;;;;;;;;;;;;;26.75;24.25;100728.44;5107733;28;19990;-91
2022/05/20 08:47:24;;;;;;;;;;;;;;;27.26;22.67;100724.16;5107209;28;20006;-89
2022/05/20 08:49:54;;;;;;;;;;;;;;;27.19;22.82;100722.84;5106859;28;19980;-89
2022/05/20 08:52:19;;;;;;;;;;;;;;;27.25;20.17;100717.91;5107806;28;19912;-90
2022/05/20 08:54:45;;;;;;;;;;;;;;;27.34;24.06;100716.41;5107090;28;19922;-89
2022/05/20 08:57:25;;;;;;;;;;;;;;;27.22;23.94;100723.53;5106378;28;19915;-88
2022/05/20 08:59:50;;;;;;;;;;;;;;;26.87;22.49;100715.94;5107682;28;19978;-90
2022/05/20 09:02:16;;;;;;;;;;;;;;;27.52;23.03;100714.25;5106991;28;20483;-90
2022/05/20 09:04:41;;;;;;;;;;;;;;;27.52;24.57;100717.84;5107122;28;20042;-90
2022/05/20 09:07:08;;;;;;;;;;;;;;;28.01;22.54;100705.38;5105665;28;20401;-89
2022/05/20 09:09:42;;;;;;;;;;;;;;;27.92;23.10;100707.88;5108238;28;19919;-89
2022/05/20 09:12:07;;;;;;;;;;;;;;;27.69;22.18;100705.81;5106975;28;19919;-88
2022/05/20 09:17:21;;;;;;;;;;;;;;;28.61;21.61;100696.56;5107576;28;20305;-90
2022/05/20 09:20:00;;;;;;;;;;;;;;;29.26;20.29;100685.25;5105912;28;19915;-90
2022/05/20 09:22:30;;;;;;;;;;;;;;;29.17;19.34;100685.06;5105796;28;19959;-88
2022/05/20 09:24:56;;;;;;;;;;;;;;;27.90;21.08;100694.44;5107277;28;19916;-86
2022/05/20 09:27:32;;;;;;;;;;;;;;;27.88;19.63;100688.22;5107668;28;19922;-88
2022/05/20 09:29:58;;;;;;;;;;;;;;;27.76;26.75;100680.97;5106795;28;20029;-88
2022/05/20 09:32:34;;;;;;;;;;;;;;;28.57;25.82;100669.59;5107341;28;20014;-88
2022/05/20 09:35:18;;;;;;;;;;;;;;;28.48;23.45;100670.31;5105933;28;19977;-89
2022/05/20 09:37:44;;;;;;;;;;;;;;;28.85;22.49;100661.25;5107765;28;19920;-88
2022/05/20 09:40:22;;;;;;;;;;;;;;;28.87;25.59;100659.28;5107480;28;19954;-89
2022/05/20 09:43:06;;;;;;;;;;;;;;;28.69;21.14;100656.16;5107764;28;19954;-89
2022/05/20 09:45:36;;;;;;;;;;;;;;;28.51;21.08;100653.78;5105940;28;19912;-88
2022/05/20 09:48:02;;;;;;;;;;;;;;;28.17;20.77;100645.44;5110147;28;19919;-87
2022/05/20 09:50:27;;;;;;;;;;;;;;;28.77;20.13;100647.41;5110499;28;20040;-88
2022/05/20 09:52:58;;;;;;;;;;;;;;;28.93;22.83;100637.97;5110484;28;20767;-89
2022/05/20 09:55:23;;;;;;;;;;;;;;;29.09;21.42;100637.63;5110623;28;19918;-87
2022/05/20 09:57:49;;;;;;;;;;;;;;;29.46;19.33;100629.31;5110729;28;20320;-87
2022/05/20 10:00:32;;;;;;;;;;;;;;;29.23;18.85;100642.03;5110796;28;20010;-87
2022/05/20 10:03:16;;;;;;;;;;;;;;;29.15;18.23;100635.41;5110368;28;19908;-87
2022/05/20 10:05:50;;;;;;;;;;;;;;;29.65;20.02;100630.56;5109221;28;19968;-87
2022/05/20 10:08:29;;;;;;;;;;;;;;;28.83;22.71;100627.94;5110429;27;19911;-87
2022/05/20 10:11:13;;;;;;;;;;;;;;;28.51;23.88;100620.38;5108475;28;19919;-87
2022/05/20 10:13:38;;;;;;;;;;;;;;;28.34;22.76;100629.78;5109138;28;19922;-85
2022/05/20 10:16:15;;;;;;;;;;;;;;;28.27;20.59;100625.78;5109834;28;19916;-86
2022/05/20 10:18:40;;;;;;;;;;;;;;;27.93;20.99;100621.00;5110054;28;19915;-86
2022/05/20 10:21:08;;;;;;;;;;;;;;;28.42;26.66;100618.34;5110043;28;19916;-87
2022/05/20 10:23:52;;;;;;;;;;;;;;;28.73;25.75;100614.19;5109744;28;19923;-87
2022/05/20 10:26:23;;;;;;;;;;;;;;;28.52;20.99;100603.97;5109510;28;19994;-87
2022/05/20 10:34:33;;;;;;;;;;;;;;;28.29;21.48;100594.88;5109414;28;19927;-86
2022/05/20 10:37:08;;;;;;;;;;;;;;;28.13;21.49;100608.72;5111370;28;19919;-88
2022/05/20 10:39:33;;;;;;;;;;;;;;;28.35;21.77;100599.81;5110161;28;20653;-87
2022/05/20 10:42:21;;;;;;;;;;;;;;;28.33;20.15;100596.38;5109893;28;19915;-89
2022/05/20 10:51:13;;;;;;;;;;;;;;;28.97;23.30;100575.28;5109219;28;19927;-89
2022/05/20 10:53:41;;;;;;;;;;;;;;;29.88;20.00;100578.94;5091017;28;19916;-87
2022/05/20 10:56:21;;;;;;;;;;;;;;;29.83;20.16;100573.88;5108042;28;19916;-87
2022/05/20 10:58:50;;;;;;;;;;;;;;;30.12;20.00;100573.28;5108365;28;19916;-87
2022/05/20 11:01:21;;;;;;;;;;;;;;;29.58;21.03;100577.69;5109431;28;19966;-87
2022/05/20 11:03:48;;;;;;;;;;;;;;;28.96;20.15;100563.53;5108865;28;19911;-87
2022/05/20 11:06:40;;;;;;;;;;;;;;;29.00;20.17;100564.19;5109297;28;19919;-87
2022/05/20 11:09:15;;;;;;;;;;;;;;;29.46;22.35;100563.25;5109214;28;19916;-87
2022/05/20 11:11:46;;;;;;;;;;;;;;;29.42;19.83;100559.03;5108106;28;19922;-88
2022/05/20 11:14:38;;;;;;;;;;;;;;;29.31;18.74;100559.06;5109050;28;19933;-88
2022/05/20 11:17:19;;;;;;;;;;;;;;;29.42;19.77;100559.03;5077323;28;19923;-88
2022/05/20 11:19:53;;;;;;;;;;;;;;;28.95;21.29;100548.25;5109139;28;19915;-88
2022/05/20 11:22:21;;;;;;;;;;;;;;;29.12;20.36;100544.19;5109043;28;19919;-88
2022/05/20 11:25:05;;;;;;;;;;;;;;;29.31;19.70;100540.03;5108425;28;19908;-88
2022/05/20 11:27:30;;;;;;;;;;;;;;;29.25;20.50;100541.38;5109279;28;19916;-89
2022/05/20 11:30:01;;;;;;;;;;;;;;;29.32;21.29;100536.31;5108526;28;20354;-87
2022/05/20 11:32:36;;;;;;;;;;;;;;;28.91;20.67;100539.47;5108304;28;19923;-89
2022/05/20 11:35:19;;;;;;;;;;;;;;;29.23;20.21;100540.66;5108571;28;20413;-89
2022/05/20 11:38:02;;;;;;;;;;;;;;;29.34;18.02;100521.63;5108117;28;19915;-89
2022/05/20 11:40:32;;;;;;;;;;;;;;;29.29;20.20;100518.44;5108714;28;19919;-89
2022/05/20 11:43:16;;;;;;;;;;;;;;;28.49;20.99;100519.25;5108174;28;20296;-89
2022/05/20 11:45:52;;;;;;;;;;;;;;;28.04;23.61;100517.22;5108846;28;20051;-88
2022/05/20 11:48:19;;;;;;;;;;;;;;;27.85;21.92;100521.25;5109076;28;19934;-88
2022/05/20 11:50:57;;;;;;;;;;;;;;;28.39;23.82;100513.63;5107788;28;20046;-89
2022/05/20 11:53:25;;;;;;;;;;;;;;;28.37;21.46;100511.03;5108528;28;19916;-87
2022/05/20 11:55:56;;;;;;;;;;;;;;;28.56;21.76;100501.47;5107687;28;19911;-88
2022/05/20 11:58:48;;;;;;;;;;;;;;;28.70;21.17;100505.84;5108896;28;19916;-89
2022/05/20 12:01:14;;;;;;;;;;;;;;;29.27;20.60;100493.22;5102883;28;19918;-88
2022/05/20 12:06:26;;;;;;;;;;;;;;;29.49;20.47;100492.34;5108082;28;19926;-85
2022/05/20 12:08:58;;;;;;;;;;;;;;;29.67;20.58;100480.94;5107254;28;19916;-87
2022/05/20 12:11:27;;;;;;;;;;;;;;;29.70;19.76;100486.13;5106913;28;20498;-88
2022/05/20 12:14:19;;;;;;;;;;;;;;;29.86;21.04;100483.00;5108246;28;19994;-88
2022/05/20 12:17:05;;;;;;;;;;;;;;;30.20;21.30;100474.72;5106411;28;19919;-88
2022/05/20 12:25:42;;;;;;;;;;;;;;;29.82;22.96;100466.09;5107222;28;20396;-88
2022/05/20 12:28:28;;;;;;;;;;;;;;;29.56;19.58;100468.25;5024748;28;19917;-89
2022/05/20 12:31:05;;;;;;;;;;;;;;;29.99;19.13;100461.97;5024879;28;19927;-88
2022/05/20 12:33:52;;;;;;;;;;;;;;;29.61;20.63;100460.56;5080772;28;19916;-88
2022/05/20 12:36:17;;;;;;;;;;;;;;;30.42;18.33;100458.31;5107486;28;19920;-87
2022/05/20 12:38:43;;;;;;;;;;;;;;;30.91;17.16;100458.59;5107724;28;19919;-87
2022/05/20 12:41:30;;;;;;;;;;;;;;;31.10;20.59;100449.66;5108057;28;19911;-87
2022/05/20 12:43:57;;;;;;;;;;;;;;;30.76;17.96;100452.63;5102147;28;20034;-88
2022/05/20 12:46:45;;;;;;;;;;;;;;;30.83;18.59;100445.66;5107290;28;19915;-87
2022/05/20 12:49:11;;;;;;;;;;;;;;;31.24;20.45;100438.38;5104618;28;20454;-87
2022/05/20 12:51:47;;;;;;;;;;;;;;;31.28;20.14;100435.38;5106059;28;20010;-86
2022/05/20 12:54:16;;;;;;;;;;;;;;;31.34;17.48;100427.53;5107505;28;19916;-87
2022/05/20 12:56:41;;;;;;;;;;;;;;;31.31;18.71;100421.47;5104931;28;19922;-88
2022/05/20 12:59:18;;;;;;;;;;;;;;;31.43;19.05;100420.34;5107786;28;19994;-87
2022/05/20 13:01:47;;;;;;;;;;;;;;;31.30;19.66;100400.69;5107778;28;19926;-87
2022/05/20 13:04:14;;;;;;;;;;;;;;;30.92;20.24;100407.69;5106794;28;19962;-87
2022/05/20 13:06:43;;;;;;;;;;;;;;;30.15;19.55;100407.97;5107753;28;20000;-86
2022/05/20 13:09:08;;;;;;;;;;;;;;;30.38;22.02;100402.38;5107483;28;19959;-86
2022/05/20 13:11:41;;;;;;;;;;;;;;;29.78;21.10;100399.34;5107280;28;19972;-86
2022/05/20 13:14:10;;;;;;;;;;;;;;;30.32;20.10;100397.47;5106165;28;19916;-88
2022/05/20 13:16:35;;;;;;;;;;;;;;;30.36;19.14;100394.34;5107337;28;19918;-89
2022/05/20 13:19:04;;;;;;;;;;;;;;;30.98;19.38;100388.97;5106947;28;20624;-88
2022/05/20 13:21:39;;;;;;;;;;;;;;;30.87;20.48;100380.88;5107106;28;20459;-87
2022/05/20 13:24:15;;;;;;;;;;;;;;;30.93;19.38;100376.75;5110891;28;19918;-87